Time;durP1;ratioP1;P1;durP2;ratioP2;P2;SDS_P1;SDS_P2;PMS_P1;PMS_P2;Temp;Humidity;BMP_temperature;BMP_pressure;BME280_temperature;BME280_humidity;BME280_pressure;Samples;Min_cycle;Max_cycle;Signal;HPM_P1;HPM_P2
2022/01/02 00:01:36;;;;;;;15.27;6.18;;;10.40;99.90;;;;;;4993078;28;20370;-85
2022/01/02 00:04:07;;;;;;;12.32;6.07;;;10.40;99.90;;;;;;4975983;28;20418;-84
2022/01/02 00:06:36;;;;;;;13.05;5.97;;;10.40;99.90;;;;;;4993658;28;20018;-84
2022/01/02 00:09:06;;;;;;;14.55;7.13;;;10.40;99.90;;;;;;4993532;28;20034;-85
2022/01/02 00:11:34;;;;;;;10.05;6.18;;;10.40;99.90;;;;;;4993236;28;20470;-85
2022/01/02 00:14:07;;;;;;;11.60;7.75;;;10.40;99.90;;;;;;4993468;28;20085;-85
2022/01/02 00:16:37;;;;;;;14.13;7.20;;;10.40;99.90;;;;;;4975712;28;20033;-86
2022/01/02 00:19:16;;;;;;;12.75;7.20;;;10.50;99.90;;;;;;4993236;28;20214;-86
2022/01/02 00:21:45;;;;;;;16.27;8.40;;;10.40;99.90;;;;;;4992966;28;20018;-84
2022/01/02 00:24:16;;;;;;;10.65;6.82;;;10.50;99.90;;;;;;4992921;28;20026;-85
2022/01/02 00:26:50;;;;;;;14.48;7.60;;;10.50;99.90;;;;;;4993343;28;20495;-86
2022/01/02 00:29:15;;;;;;;18.00;9.05;;;10.60;99.90;;;;;;4993212;28;20037;-85
2022/01/02 00:31:42;;;;;;;14.20;6.22;;;10.50;99.90;;;;;;4992558;28;20030;-84
2022/01/02 00:34:10;;;;;;;15.10;6.40;;;10.60;99.90;;;;;;4981709;28;20062;-85
2022/01/02 00:36:36;;;;;;;13.43;6.60;;;10.50;99.90;;;;;;4988890;28;20057;-86
2022/01/02 00:39:03;;;;;;;13.20;6.85;;;10.50;99.90;;;;;;4975725;28;20068;-85
2022/01/02 00:42:20;;;;;;;9.93;5.88;;;10.60;99.90;;;;;;4992762;28;20074;-85
2022/01/02 00:45:04;;;;;;;14.40;6.10;;;10.60;99.90;;;;;;4993062;28;20038;-86
2022/01/02 00:47:35;;;;;;;13.88;5.82;;;10.60;99.90;;;;;;4992812;28;20097;-85
2022/01/02 00:50:06;;;;;;;12.93;5.82;;;10.60;99.90;;;;;;4992871;28;20042;-86
2022/01/02 00:52:37;;;;;;;6.78;5.00;;;10.60;99.90;;;;;;4993046;28;20037;-86
2022/01/02 00:55:06;;;;;;;11.50;5.30;;;10.70;99.90;;;;;;4993115;28;20433;-86
2022/01/02 00:57:38;;;;;;;13.13;5.50;;;10.60;99.90;;;;;;4992887;28;20120;-86
2022/01/02 01:00:17;;;;;;;13.70;5.38;;;10.70;99.90;;;;;;4992816;28;20033;-86
2022/01/02 01:02:53;;;;;;;10.18;5.90;;;10.70;99.90;;;;;;4992663;28;20019;-86
2022/01/02 01:05:23;;;;;;;15.07;6.13;;;10.70;99.90;;;;;;4992803;28;20037;-86
2022/01/02 01:07:51;;;;;;;9.50;5.25;;;10.60;99.90;;;;;;4992798;28;20073;-86
2022/01/02 01:10:19;;;;;;;9.77;4.72;;;10.60;99.90;;;;;;4975879;28;20026;-86
2022/01/02 01:12:48;;;;;;;10.05;5.10;;;10.60;99.90;;;;;;4992798;28;20034;-86
2022/01/02 01:15:13;;;;;;;17.02;5.50;;;10.60;99.90;;;;;;4992819;28;20030;-85
2022/01/02 01:17:48;;;;;;;10.73;4.68;;;10.60;99.90;;;;;;4992279;28;20033;-85
2022/01/02 01:20:14;;;;;;;8.35;4.60;;;10.70;99.90;;;;;;4992761;28;20030;-86
2022/01/02 01:22:42;;;;;;;10.50;5.57;;;10.60;99.90;;;;;;4992272;28;20112;-86
2022/01/02 01:25:18;;;;;;;12.60;5.47;;;10.70;99.90;;;;;;4992644;28;20030;-86
2022/01/02 01:27:45;;;;;;;9.93;5.18;;;10.80;99.90;;;;;;4992916;28;20030;-86
2022/01/02 01:30:12;;;;;;;9.60;4.82;;;10.80;99.90;;;;;;4992542;28;20035;-86
2022/01/02 01:32:40;;;;;;;10.32;5.20;;;10.80;99.90;;;;;;4992361;28;20109;-86
2022/01/02 01:35:07;;;;;;;13.98;4.78;;;10.80;99.90;;;;;;4995434;28;20035;-86
2022/01/02 01:37:33;;;;;;;11.77;4.97;;;10.80;99.90;;;;;;4978818;28;20038;-86
2022/01/02 01:40:01;;;;;;;11.88;4.80;;;10.70;99.90;;;;;;4995886;28;20026;-87
2022/01/02 01:42:37;;;;;;;10.45;5.13;;;10.80;99.90;;;;;;4996198;28;20113;-87
2022/01/02 01:48:05;;;;;;;11.73;4.85;;;10.80;99.90;;;;;;4995946;28;20540;-85
2022/01/02 01:50:42;;;;;;;12.13;4.35;;;11.00;99.90;;;;;;4996286;28;20521;-86
2022/01/02 01:53:09;;;;;;;10.23;4.38;;;11.00;99.90;;;;;;4995873;28;20022;-87
2022/01/02 01:55:36;;;;;;;13.68;4.78;;;11.00;99.90;;;;;;4995846;28;20026;-85
2022/01/02 01:58:04;;;;;;;7.88;3.75;;;11.00;99.90;;;;;;4995785;28;20030;-86
2022/01/02 02:00:33;;;;;;;11.93;3.88;;;11.00;99.90;;;;;;4978089;28;20449;-86
2022/01/02 02:02:59;;;;;;;10.05;3.63;;;10.90;99.90;;;;;;4995389;28;20102;-87
2022/01/02 02:05:35;;;;;;;6.25;3.35;;;11.00;99.90;;;;;;4978257;28;20045;-85
2022/01/02 02:08:01;;;;;;;11.05;4.63;;;10.90;99.90;;;;;;4995358;28;20522;-85
2022/01/02 02:10:35;;;;;;;6.13;3.72;;;11.00;99.90;;;;;;4995403;28;20032;-86
2022/01/02 02:13:02;;;;;;;10.18;3.65;;;10.90;99.90;;;;;;4995358;28;20498;-86
2022/01/02 02:15:28;;;;;;;5.00;3.05;;;10.90;99.90;;;;;;4995340;28;20497;-86
2022/01/02 02:17:56;;;;;;;5.35;3.15;;;10.80;99.90;;;;;;4994922;28;20026;-86
2022/01/02 02:20:41;;;;;;;9.30;4.03;;;10.80;99.90;;;;;;4978213;28;20473;-86
2022/01/02 02:23:07;;;;;;;8.68;3.40;;;10.80;99.90;;;;;;4995349;28;20105;-87
2022/01/02 02:25:35;;;;;;;7.65;4.38;;;10.80;99.90;;;;;;4995429;28;20065;-85
2022/01/02 02:28:06;;;;;;;8.65;3.55;;;10.80;99.90;;;;;;4995133;28;20026;-85
2022/01/02 02:30:35;;;;;;;6.85;3.33;;;10.80;99.90;;;;;;4977816;28;20041;-86
2022/01/02 02:33:03;;;;;;;5.30;3.47;;;10.70;99.90;;;;;;4994941;28;20022;-86
2022/01/02 02:35:31;;;;;;;5.88;3.60;;;10.70;99.90;;;;;;4975818;28;20412;-86
2022/01/02 02:37:57;;;;;;;7.30;3.80;;;10.70;99.90;;;;;;4973430;28;20033;-86
2022/01/02 02:40:25;;;;;;;7.28;3.80;;;10.70;99.90;;;;;;4994937;28;20026;-85
2022/01/02 02:42:56;;;;;;;6.38;3.28;;;10.70;99.90;;;;;;4994867;28;20037;-86
2022/01/02 02:51:26;;;;;;;8.82;3.72;;;10.60;99.90;;;;;;4994835;28;20097;-87
2022/01/02 02:53:52;;;;;;;7.22;3.67;;;10.60;99.90;;;;;;4994763;28;20038;-85
2022/01/02 02:56:26;;;;;;;9.48;3.38;;;10.70;99.90;;;;;;4994854;28;20061;-85
2022/01/02 02:58:57;;;;;;;10.07;3.65;;;11.00;99.90;;;;;;4994754;28;20076;-85
2022/01/02 03:01:32;;;;;;;13.30;3.20;;;11.20;99.90;;;;;;4975717;28;20501;-84
2022/01/02 03:03:57;;;;;;;10.25;3.70;;;11.50;99.90;;;;;;4977217;28;20053;-86
2022/01/02 03:06:23;;;;;;;6.15;2.92;;;11.60;99.90;;;;;;4994458;28;20387;-84
2022/01/02 03:09:08;;;;;;;7.28;3.00;;;11.80;99.90;;;;;;4977132;28;20029;-85
2022/01/02 03:11:36;;;;;;;12.40;3.15;;;11.80;99.90;;;;;;4994378;28;20105;-85
2022/01/02 03:14:03;;;;;;;6.32;2.92;;;11.90;99.90;;;;;;4994482;28;20030;-85
2022/01/02 03:16:33;;;;;;;12.32;3.35;;;12.00;99.90;;;;;;4993810;28;20130;-85
2022/01/02 03:18:59;;;;;;;7.90;2.67;;;12.00;99.90;;;;;;4994290;28;20031;-85
2022/01/02 03:21:25;;;;;;;8.50;2.95;;;12.10;99.90;;;;;;4994051;28;20022;-86
2022/01/02 03:23:50;;;;;;;10.55;3.13;;;12.10;99.90;;;;;;4993953;28;20022;-86
2022/01/02 03:26:17;;;;;;;9.05;3.05;;;12.10;99.90;;;;;;4977160;28;20027;-85
2022/01/02 03:28:43;;;;;;;6.82;2.45;;;12.20;99.90;;;;;;4994062;28;20071;-85
2022/01/02 03:31:10;;;;;;;8.73;2.85;;;12.10;99.90;;;;;;4993853;28;20105;-85
2022/01/02 03:33:36;;;;;;;5.18;2.50;;;12.10;99.90;;;;;;4974772;28;20467;-85
2022/01/02 03:36:02;;;;;;;5.65;2.10;;;12.10;99.90;;;;;;4975963;28;20105;-86
2022/01/02 03:38:28;;;;;;;5.45;2.42;;;12.10;99.90;;;;;;4994102;28;20023;-85
2022/01/02 03:40:54;;;;;;;6.03;2.58;;;12.10;99.90;;;;;;4993710;28;20034;-85
2022/01/02 03:43:20;;;;;;;12.88;2.97;;;12.10;99.90;;;;;;4976561;28;20406;-85
2022/01/02 03:45:45;;;;;;;8.88;2.25;;;12.20;99.90;;;;;;4993181;28;20042;-86
2022/01/02 03:48:11;;;;;;;5.13;2.35;;;12.20;99.90;;;;;;4976590;28;20022;-85
2022/01/02 03:50:40;;;;;;;5.78;2.42;;;12.20;99.90;;;;;;4993566;28;20041;-85
2022/01/02 03:53:06;;;;;;;4.72;2.67;;;12.20;99.90;;;;;;4993563;28;20030;-86
2022/01/02 03:55:32;;;;;;;4.68;2.40;;;12.20;99.90;;;;;;4993639;28;20153;-86
2022/01/02 03:58:09;;;;;;;4.32;2.15;;;12.10;99.90;;;;;;4993476;28;20077;-86
2022/01/02 04:00:35;;;;;;;12.30;3.13;;;12.20;99.90;;;;;;4975810;28;20030;-85
2022/01/02 04:03:00;;;;;;;9.75;2.60;;;12.20;99.90;;;;;;4976006;28;20041;-85
2022/01/02 04:05:28;;;;;;;7.13;2.30;;;12.20;99.90;;;;;;4993300;28;20497;-84
2022/01/02 04:07:54;;;;;;;9.68;2.65;;;12.20;99.90;;;;;;4993373;28;20026;-84
2022/01/02 04:10:20;;;;;;;6.75;2.42;;;12.30;99.90;;;;;;4975756;28;20034;-86
2022/01/02 04:12:46;;;;;;;9.13;3.63;;;12.30;99.90;;;;;;4993331;28;20022;-86
2022/01/02 04:15:13;;;;;;;3.53;2.05;;;12.20;99.90;;;;;;4993612;28;20037;-84
2022/01/02 04:17:41;;;;;;;5.38;2.17;;;12.20;99.90;;;;;;4992672;28;20446;-85
2022/01/02 04:20:08;;;;;;;7.03;2.90;;;12.20;99.90;;;;;;4993393;28;20374;-85
2022/01/02 04:22:36;;;;;;;3.60;2.30;;;12.10;99.90;;;;;;4993306;28;20026;-85
2022/01/02 04:25:03;;;;;;;5.85;2.85;;;12.00;99.90;;;;;;4975764;28;20437;-85
2022/01/02 04:27:29;;;;;;;4.75;2.67;;;11.90;99.90;;;;;;4993434;28;20026;-85
2022/01/02 04:30:06;;;;;;;9.13;2.45;;;11.80;99.90;;;;;;4993268;28;20479;-86
2022/01/02 04:32:32;;;;;;;9.23;2.58;;;11.70;99.90;;;;;;4974614;28;20055;-84
2022/01/02 04:34:57;;;;;;;8.40;2.92;;;11.70;99.90;;;;;;4993415;28;20035;-85
2022/01/02 04:37:25;;;;;;;5.63;2.42;;;11.80;99.90;;;;;;4993287;28;20027;-85
2022/01/02 04:39:51;;;;;;;2.92;2.25;;;11.70;99.90;;;;;;4992982;28;20474;-85
2022/01/02 04:42:16;;;;;;;5.95;2.78;;;11.70;99.90;;;;;;4992671;28;20031;-85
2022/01/02 04:44:42;;;;;;;5.45;2.85;;;11.60;99.90;;;;;;4992944;28;20070;-85
2022/01/02 04:47:28;;;;;;;5.13;2.28;;;11.60;99.90;;;;;;4975426;28;20027;-85
2022/01/02 04:49:53;;;;;;;7.07;2.45;;;11.60;99.90;;;;;;4987703;28;20027;-86
2022/01/02 04:52:19;;;;;;;8.93;3.00;;;11.60;99.90;;;;;;4992879;28;20041;-85
2022/01/02 04:54:47;;;;;;;7.03;2.83;;;11.60;99.90;;;;;;4992965;28;20022;-86
2022/01/02 04:57:12;;;;;;;9.20;2.38;;;11.50;99.90;;;;;;4975540;28;20036;-87
2022/01/02 04:59:38;;;;;;;6.57;2.83;;;11.60;99.90;;;;;;4975421;28;20027;-87
2022/01/02 05:02:05;;;;;;;9.90;3.33;;;11.60;99.90;;;;;;4991963;28;20027;-85
2022/01/02 05:04:37;;;;;;;8.15;2.92;;;11.60;99.90;;;;;;4981182;28;20037;-86
2022/01/02 05:07:03;;;;;;;5.18;2.65;;;11.60;99.90;;;;;;4993032;28;20126;-86
2022/01/02 05:09:29;;;;;;;5.65;2.30;;;11.60;99.90;;;;;;4994858;28;20143;-85
2022/01/02 05:11:55;;;;;;;7.47;2.42;;;11.50;99.90;;;;;;4996167;28;20064;-85
2022/01/02 05:14:20;;;;;;;5.00;2.58;;;11.50;99.90;;;;;;4996914;28;20022;-85
2022/01/02 05:16:46;;;;;;;7.13;3.28;;;11.50;99.90;;;;;;4996288;28;20037;-86
2022/01/02 05:19:11;;;;;;;5.63;2.97;;;11.40;99.90;;;;;;4979277;28;20379;-85
2022/01/02 05:21:37;;;;;;;7.15;3.17;;;11.40;99.90;;;;;;4978768;28;20077;-84
2022/01/02 05:24:02;;;;;;;4.35;2.53;;;11.40;99.90;;;;;;4979018;28;20471;-85
2022/01/02 05:26:31;;;;;;;6.07;2.78;;;11.40;99.90;;;;;;4996264;28;20046;-86
2022/01/02 05:28:57;;;;;;;4.40;2.60;;;11.40;99.90;;;;;;4996439;28;20386;-85
2022/01/02 05:31:22;;;;;;;8.82;2.72;;;11.40;99.90;;;;;;4978339;28;20109;-85
2022/01/02 05:33:50;;;;;;;5.13;2.25;;;11.30;99.90;;;;;;4996288;28;20030;-86
2022/01/02 05:36:15;;;;;;;10.60;2.67;;;11.30;99.90;;;;;;4996147;28;20038;-85
2022/01/02 05:38:42;;;;;;;12.77;3.55;;;11.30;99.90;;;;;;4978863;28;20030;-87
2022/01/02 05:41:08;;;;;;;10.40;3.75;;;11.30;99.90;;;;;;4996360;28;20018;-85
2022/01/02 05:43:33;;;;;;;8.23;2.90;;;11.30;99.90;;;;;;4995763;28;20125;-86
2022/01/02 05:46:05;;;;;;;6.82;3.03;;;11.40;99.90;;;;;;4995918;28;20029;-85
2022/01/02 05:48:31;;;;;;;11.75;3.50;;;11.50;99.90;;;;;;4996278;28;20114;-86
2022/01/02 05:51:02;;;;;;;19.38;3.40;;;11.50;99.90;;;;;;4996107;28;20475;-85
2022/01/02 05:53:29;;;;;;;15.70;3.22;;;11.60;99.90;;;;;;4996036;28;20062;-85
2022/01/02 05:55:58;;;;;;;13.38;3.42;;;11.70;99.90;;;;;;4978293;28;20034;-86
2022/01/02 05:58:24;;;;;;;10.07;2.90;;;11.80;99.90;;;;;;4995926;28;20065;-85
2022/01/02 06:00:51;;;;;;;9.88;3.40;;;11.90;99.90;;;;;;4995428;28;20074;-85
2022/01/02 06:03:16;;;;;;;11.00;3.72;;;11.90;99.90;;;;;;4978075;28;20023;-85
2022/01/02 06:05:46;;;;;;;10.38;3.42;;;12.00;99.90;;;;;;4978322;28;20177;-86
2022/01/02 06:08:12;;;;;;;12.13;2.85;;;12.00;99.90;;;;;;4995626;28;20503;-86
2022/01/02 06:10:38;;;;;;;12.30;3.70;;;12.00;99.90;;;;;;4995525;28;20076;-86
2022/01/02 06:13:03;;;;;;;14.30;3.88;;;12.00;99.90;;;;;;4995309;28;20489;-86
2022/01/02 06:15:29;;;;;;;8.43;2.90;;;12.00;99.90;;;;;;4977931;28;20070;-86
2022/01/02 06:17:55;;;;;;;4.78;2.88;;;12.00;99.90;;;;;;4995495;28;20038;-86
2022/01/02 06:20:21;;;;;;;11.75;4.22;;;11.90;99.90;;;;;;4994279;28;20035;-85
2022/01/02 06:22:47;;;;;;;11.05;3.17;;;11.80;99.90;;;;;;4995377;28;20073;-87
2022/01/02 06:25:12;;;;;;;9.40;3.03;;;11.80;99.90;;;;;;4995370;28;20018;-85
2022/01/02 06:27:44;;;;;;;8.68;3.15;;;11.70;99.90;;;;;;4995228;28;20471;-86
2022/01/02 06:30:10;;;;;;;11.48;3.53;;;11.70;99.90;;;;;;4977224;28;20030;-85
2022/01/02 06:32:36;;;;;;;7.65;3.25;;;11.60;99.90;;;;;;4976072;28;20129;-84
2022/01/02 06:35:01;;;;;;;12.65;6.07;;;11.50;99.90;;;;;;4993600;28;20109;-85
2022/01/02 06:37:27;;;;;;;17.60;5.63;;;11.50;99.90;;;;;;4994312;28;20057;-85
2022/01/02 06:39:52;;;;;;;12.10;4.03;;;11.50;99.90;;;;;;4994695;28;20569;-85
2022/01/02 06:42:19;;;;;;;12.18;3.15;;;11.50;99.90;;;;;;4995057;28;20129;-84
2022/01/02 06:44:47;;;;;;;7.32;3.50;;;11.70;99.90;;;;;;4991899;28;20038;-85
2022/01/02 06:47:12;;;;;;;11.80;3.88;;;11.80;99.90;;;;;;4992013;28;20034;-85
2022/01/02 06:49:38;;;;;;;13.30;3.67;;;11.90;99.90;;;;;;4989602;28;20068;-85
2022/01/02 06:52:03;;;;;;;8.07;3.00;;;12.00;99.90;;;;;;4990663;28;20023;-85
2022/01/02 06:54:29;;;;;;;16.45;3.60;;;12.10;99.90;;;;;;4994391;28;20041;-85
2022/01/02 06:56:59;;;;;;;20.17;3.58;;;12.20;99.90;;;;;;4994080;28;20494;-85
2022/01/02 06:59:25;;;;;;;12.30;3.50;;;12.20;99.90;;;;;;4993977;28;20384;-85
2022/01/02 07:01:50;;;;;;;20.05;4.15;;;12.20;99.90;;;;;;4990808;28;20169;-85
2022/01/02 07:04:16;;;;;;;13.95;3.53;;;12.20;99.90;;;;;;4993592;28;20026;-86
2022/01/02 07:06:42;;;;;;;20.08;3.65;;;12.20;99.90;;;;;;4993585;28;20033;-85
2022/01/02 07:09:07;;;;;;;12.35;3.80;;;12.30;99.90;;;;;;4991057;28;20109;-84
2022/01/02 07:11:33;;;;;;;13.13;3.75;;;12.30;99.90;;;;;;4965327;28;20475;-85
2022/01/02 07:13:59;;;;;;;17.55;3.88;;;12.30;99.90;;;;;;4989132;28;20042;-85
2022/01/02 07:16:25;;;;;;;19.05;4.65;;;12.30;99.90;;;;;;4992385;28;20027;-84
2022/01/02 07:18:51;;;;;;;12.45;3.38;;;12.30;99.90;;;;;;4993964;28;20427;-85
2022/01/02 07:21:17;;;;;;;12.48;3.33;;;12.30;99.90;;;;;;4993508;28;20534;-85
2022/01/02 07:23:45;;;;;;;14.95;3.25;;;12.30;99.90;;;;;;4993619;28;20023;-85
2022/01/02 07:26:10;;;;;;;17.15;3.83;;;12.30;99.90;;;;;;4993440;28;20027;-84
2022/01/02 07:28:36;;;;;;;8.27;3.22;;;12.40;99.90;;;;;;4992900;28;20048;-85
2022/01/02 07:31:01;;;;;;;16.17;3.75;;;12.40;99.90;;;;;;4989827;28;20035;-85
2022/01/02 07:33:27;;;;;;;13.80;3.20;;;12.30;99.90;;;;;;4987301;28;20054;-85
2022/01/02 07:35:53;;;;;;;9.15;4.10;;;12.40;99.90;;;;;;4993100;28;20034;-84
2022/01/02 07:38:19;;;;;;;16.65;3.65;;;12.40;99.90;;;;;;4992892;28;20034;-85
2022/01/02 07:40:45;;;;;;;14.60;3.88;;;12.50;99.90;;;;;;4992880;28;20042;-85
2022/01/02 07:43:10;;;;;;;23.25;4.38;;;12.50;99.90;;;;;;4991761;28;20027;-85
2022/01/02 07:45:36;;;;;;;17.15;3.92;;;12.50;99.90;;;;;;4992357;28;20113;-84
2022/01/02 07:48:02;;;;;;;21.15;3.80;;;12.50;99.90;;;;;;4993066;28;20033;-84
2022/01/02 07:50:27;;;;;;;9.25;3.38;;;12.60;99.90;;;;;;4993285;28;20084;-85
2022/01/02 07:52:53;;;;;;;12.82;3.63;;;12.60;99.90;;;;;;4974780;28;20556;-85
2022/01/02 07:55:19;;;;;;;13.93;3.72;;;12.60;99.90;;;;;;4976189;28;20058;-84
2022/01/02 07:57:46;;;;;;;16.73;3.50;;;12.60;99.90;;;;;;4975816;28;20030;-85
2022/01/02 08:00:12;;;;;;;23.13;3.92;;;12.60;99.90;;;;;;4980370;28;20042;-84
2022/01/02 08:02:37;;;;;;;13.82;3.95;;;12.50;99.90;;;;;;4992838;28;20023;-85
2022/01/02 08:05:03;;;;;;;12.50;3.55;;;12.50;99.90;;;;;;4995863;28;20041;-85
2022/01/02 08:07:29;;;;;;;14.70;4.05;;;12.50;99.90;;;;;;4994942;28;20081;-85
2022/01/02 08:09:54;;;;;;;15.75;3.67;;;12.40;99.90;;;;;;4998692;28;20057;-85
2022/01/02 08:12:20;;;;;;;9.23;3.53;;;12.50;99.90;;;;;;4993699;28;20061;-84
2022/01/02 08:14:45;;;;;;;14.43;3.88;;;12.40;99.90;;;;;;4992907;28;20081;-85
2022/01/02 08:17:11;;;;;;;13.32;3.58;;;12.40;99.90;;;;;;4991299;28;20054;-86
2022/01/02 08:19:36;;;;;;;9.32;3.50;;;12.40;99.90;;;;;;4992625;28;20386;-85
2022/01/02 08:22:22;;;;;;;13.77;3.17;;;12.40;99.90;;;;;;4993105;28;20061;-86
2022/01/02 08:24:48;;;;;;;14.70;3.67;;;12.30;99.90;;;;;;4991610;28;20028;-84
2022/01/02 08:27:13;;;;;;;13.93;4.07;;;12.30;99.90;;;;;;4992688;28;20105;-84
2022/01/02 08:29:41;;;;;;;10.73;4.47;;;12.20;99.90;;;;;;4991415;28;20038;-84
2022/01/02 08:32:07;;;;;;;21.65;3.72;;;12.10;99.90;;;;;;4991909;28;20463;-85
2022/01/02 08:34:32;;;;;;;15.43;3.60;;;12.10;99.90;;;;;;4992196;28;20149;-84
2022/01/02 08:36:58;;;;;;;9.88;3.80;;;12.00;99.90;;;;;;4992713;28;20475;-84
2022/01/02 08:39:23;;;;;;;11.10;4.05;;;12.00;99.90;;;;;;4992858;28;20053;-85
2022/01/02 08:41:49;;;;;;;12.70;3.65;;;12.00;99.90;;;;;;4992657;28;20034;-85
2022/01/02 08:44:14;;;;;;;15.63;3.58;;;12.00;99.90;;;;;;4976863;28;20476;-86
2022/01/02 08:46:40;;;;;;;16.02;4.13;;;12.00;99.90;;;;;;4996517;28;20054;-85
2022/01/02 08:49:06;;;;;;;14.85;2.95;;;12.00;99.90;;;;;;4996930;28;20085;-85
2022/01/02 08:51:31;;;;;;;15.38;3.60;;;12.00;99.90;;;;;;4979222;28;20049;-85
2022/01/02 08:53:57;;;;;;;12.45;3.42;;;12.00;99.90;;;;;;4979305;28;20475;-84
2022/01/02 08:56:23;;;;;;;9.27;3.38;;;12.00;99.90;;;;;;4979117;28;20360;-86
2022/01/02 08:58:48;;;;;;;19.83;4.40;;;12.00;99.90;;;;;;4996554;28;20404;-85
2022/01/02 09:01:14;;;;;;;17.88;4.30;;;12.10;99.90;;;;;;4978682;28;20069;-85
2022/01/02 09:03:39;;;;;;;10.23;3.42;;;12.10;99.90;;;;;;4996692;28;20383;-85
2022/01/02 09:06:05;;;;;;;13.02;3.38;;;12.10;99.90;;;;;;4996572;28;20106;-84
2022/01/02 09:08:31;;;;;;;15.20;3.95;;;12.10;99.90;;;;;;4979158;28;20030;-84
2022/01/02 09:10:56;;;;;;;17.20;3.30;;;12.20;99.90;;;;;;4996410;28;20089;-84
2022/01/02 09:13:23;;;;;;;20.92;3.72;;;12.20;99.90;;;;;;4996366;28;20366;-85
2022/01/02 09:15:50;;;;;;;16.27;4.80;;;12.20;99.90;;;;;;4996122;28;20023;-85
2022/01/02 09:18:16;;;;;;;10.35;3.38;;;12.20;99.90;;;;;;4996374;28;20513;-85
2022/01/02 09:20:43;;;;;;;11.20;3.67;;;12.20;99.90;;;;;;4996256;28;20066;-85
2022/01/02 09:23:09;;;;;;;9.73;2.92;;;12.20;99.90;;;;;;4978762;28;20279;-84
2022/01/02 09:25:34;;;;;;;13.27;3.20;;;12.30;99.90;;;;;;4996364;28;20026;-85
2022/01/02 09:28:00;;;;;;;7.28;2.78;;;12.40;99.90;;;;;;4996089;28;20030;-84
2022/01/02 09:30:25;;;;;;;10.30;2.83;;;12.40;99.90;;;;;;4995865;28;20026;-85
2022/01/02 09:32:51;;;;;;;8.10;2.53;;;12.40;99.90;;;;;;4995740;28;20029;-85
2022/01/02 09:35:17;;;;;;;12.95;3.35;;;12.50;99.90;;;;;;4996068;28;20482;-84
2022/01/02 09:37:42;;;;;;;24.08;4.57;;;12.50;99.90;;;;;;4995950;28;20029;-84
2022/01/02 09:40:09;;;;;;;9.27;3.65;;;12.60;99.90;;;;;;4995980;28;20418;-85
2022/01/02 09:42:36;;;;;;;7.55;2.72;;;12.60;99.90;;;;;;4978399;28;20506;-85
2022/01/02 09:45:03;;;;;;;7.90;2.95;;;12.60;99.90;;;;;;4995317;28;20030;-84
2022/01/02 09:47:31;;;;;;;11.57;4.45;;;12.70;99.90;;;;;;4995835;28;20092;-85
2022/01/02 09:49:57;;;;;;;8.40;3.28;;;12.70;99.90;;;;;;4995756;28;20022;-84
2022/01/02 09:52:23;;;;;;;11.43;4.63;;;12.60;99.90;;;;;;4995667;28;20393;-84
2022/01/02 09:54:48;;;;;;;13.50;3.47;;;12.40;99.90;;;;;;4995479;28;20030;-84
2022/01/02 09:57:14;;;;;;;12.23;3.72;;;12.30;99.90;;;;;;4977726;28;20037;-84
2022/01/02 09:59:39;;;;;;;19.83;4.50;;;12.30;99.90;;;;;;4995186;28;20053;-85
2022/01/02 10:02:05;;;;;;;16.20;4.28;;;12.10;99.90;;;;;;4995101;28;20089;-86
2022/01/02 10:04:36;;;;;;;13.55;3.70;;;12.00;99.90;;;;;;4995400;28;20556;-84
2022/01/02 10:07:04;;;;;;;12.32;4.38;;;12.00;99.90;;;;;;4977835;28;20073;-85
2022/01/02 10:09:36;;;;;;;13.88;4.35;;;11.90;99.90;;;;;;4995379;28;20149;-84
2022/01/02 10:12:21;;;;;;;9.13;3.47;;;11.80;99.90;;;;;;4995163;28;20030;-84
2022/01/02 10:15:20;;;;;;;13.00;4.00;;;11.70;99.90;;;;;;4995136;28;20029;-84
2022/01/02 10:17:59;;;;;;;20.05;4.95;;;11.70;99.90;;;;;;4995058;28;20034;-84
2022/01/02 10:20:43;;;;;;;15.38;4.93;;;11.70;99.90;;;;;;4994305;28;20018;-84
2022/01/02 10:23:24;;;;;;;13.38;4.30;;;11.60;99.90;;;;;;4994083;28;20557;-84
2022/01/02 10:25:53;;;;;;;14.15;4.78;;;11.50;99.90;;;;;;4990613;28;20026;-85
2022/01/02 10:28:37;;;;;;;14.02;4.10;;;11.40;99.90;;;;;;4974511;28;20482;-84
2022/01/02 10:31:06;;;;;;;11.55;4.80;;;11.50;99.90;;;;;;4986682;28;20483;-85
2022/01/02 10:33:47;;;;;;;12.95;4.28;;;11.40;99.90;;;;;;4994854;28;20049;-84
2022/01/02 10:36:29;;;;;;;18.65;6.95;;;11.50;99.90;;;;;;4977812;28;20034;-85
2022/01/02 10:39:04;;;;;;;11.73;4.80;;;11.50;99.90;;;;;;4994836;28;20094;-84
2022/01/02 10:41:47;;;;;;;14.63;4.43;;;11.60;99.90;;;;;;4977608;28;20022;-84
2022/01/02 10:44:26;;;;;;;13.00;4.18;;;11.60;99.90;;;;;;4976790;28;20042;-84
2022/01/02 10:47:24;;;;;;;15.45;5.35;;;11.70;99.90;;;;;;4994449;28;20367;-85
2022/01/02 10:50:05;;;;;;;11.50;4.50;;;11.70;99.90;;;;;;4975971;28;20026;-85
2022/01/02 10:52:40;;;;;;;12.55;4.22;;;11.70;99.90;;;;;;4977515;28;20113;-85
2022/01/02 10:55:17;;;;;;;16.23;5.43;;;11.70;99.90;;;;;;4994543;28;20030;-85
2022/01/02 10:57:56;;;;;;;13.43;4.28;;;11.80;99.90;;;;;;4994289;28;20034;-85
2022/01/02 11:00:25;;;;;;;15.00;4.75;;;11.80;99.90;;;;;;4993337;28;20035;-85
2022/01/02 11:02:51;;;;;;;20.77;5.22;;;11.80;99.90;;;;;;4976280;28;20533;-86
2022/01/02 11:05:19;;;;;;;12.65;4.68;;;11.80;99.90;;;;;;4994240;28;20049;-86
2022/01/02 11:07:48;;;;;;;12.40;4.20;;;11.80;99.90;;;;;;4993935;28;20022;-85
2022/01/02 11:10:24;;;;;;;12.48;4.72;;;11.90;99.90;;;;;;4994021;28;20040;-85
2022/01/02 11:12:52;;;;;;;9.65;3.80;;;11.90;99.90;;;;;;4992968;28;20434;-85
2022/01/02 11:15:19;;;;;;;15.38;4.38;;;11.90;99.90;;;;;;4993856;28;20038;-85
2022/01/02 11:17:46;;;;;;;14.18;4.50;;;11.90;99.90;;;;;;4993267;28;20026;-85
2022/01/02 11:20:15;;;;;;;14.27;4.60;;;11.90;99.90;;;;;;4990995;28;20482;-85
2022/01/02 11:23:01;;;;;;;15.98;4.55;;;11.90;99.90;;;;;;4992243;28;20410;-85
2022/01/02 11:25:42;;;;;;;13.95;4.53;;;11.80;99.90;;;;;;4995918;28;20018;-85
2022/01/02 11:28:25;;;;;;;22.77;5.13;;;11.80;99.90;;;;;;4992557;28;20471;-84
2022/01/02 11:30:52;;;;;;;11.85;4.63;;;11.70;99.90;;;;;;4993013;28;20569;-83
2022/01/02 11:33:32;;;;;;;11.45;4.55;;;11.70;99.90;;;;;;4992812;28;20015;-85
2022/01/02 11:36:00;;;;;;;10.55;4.30;;;11.80;99.90;;;;;;4993931;28;20109;-83
2022/01/02 11:38:42;;;;;;;13.50;4.32;;;11.80;99.90;;;;;;4994152;28;20065;-85
2022/01/02 11:41:08;;;;;;;11.57;4.82;;;11.80;99.90;;;;;;4960615;28;20514;-84
2022/01/02 11:43:38;;;;;;;11.48;4.97;;;11.80;99.90;;;;;;4976145;28;20031;-85
2022/01/02 11:46:56;;;;;;;13.48;4.47;;;11.80;99.90;;;;;;4993438;28;20106;-85
2022/01/02 11:49:22;;;;;;;12.30;4.47;;;11.90;99.90;;;;;;4945177;28;20046;-85
2022/01/02 11:51:48;;;;;;;8.23;3.85;;;11.90;99.90;;;;;;4976196;28;20034;-85
2022/01/02 11:54:39;;;;;;;7.70;4.22;;;11.80;99.90;;;;;;4993259;28;20041;-85
2022/01/02 11:57:14;;;;;;;14.95;3.95;;;11.90;99.90;;;;;;4993789;28;20038;-85
2022/01/02 11:59:40;;;;;;;13.50;3.88;;;11.90;99.90;;;;;;4993359;28;20030;-85
2022/01/02 12:02:34;;;;;;;15.68;4.75;;;11.90;99.90;;;;;;4975664;28;20064;-85
2022/01/02 12:04:59;;;;;;;9.32;3.53;;;11.90;99.90;;;;;;4970426;28;20026;-85
2022/01/02 12:07:34;;;;;;;12.23;4.15;;;11.90;99.90;;;;;;4993358;28;20014;-85
2022/01/02 12:10:16;;;;;;;13.50;4.50;;;11.90;99.90;;;;;;4993561;28;20030;-86
2022/01/02 12:13:00;;;;;;;14.00;4.68;;;12.00;99.90;;;;;;4975096;28;20041;-86
2022/01/02 12:15:32;;;;;;;20.02;4.97;;;12.00;99.90;;;;;;4989836;28;20081;-84
2022/01/02 12:18:06;;;;;;;14.25;5.05;;;12.00;99.90;;;;;;5005799;28;20033;-84
2022/01/02 12:20:51;;;;;;;15.30;5.05;;;12.10;99.90;;;;;;4992963;28;20030;-85
2022/01/02 12:23:42;;;;;;;13.23;4.20;;;12.10;99.90;;;;;;4985700;28;20059;-85
2022/01/02 12:26:33;;;;;;;15.93;4.57;;;12.10;99.90;;;;;;4985800;28;20058;-84
2022/01/02 12:29:07;;;;;;;14.05;3.95;;;12.10;99.90;;;;;;4962752;28;20034;-85
2022/01/02 12:31:38;;;;;;;18.70;5.10;;;12.10;99.90;;;;;;4956360;28;20105;-85
2022/01/02 12:34:08;;;;;;;13.68;4.65;;;12.10;99.90;;;;;;4988598;28;20026;-85
2022/01/02 12:36:57;;;;;;;10.63;4.13;;;12.20;99.90;;;;;;4993250;28;20443;-85
2022/01/02 12:39:46;;;;;;;10.75;4.53;;;12.10;99.90;;;;;;4976097;28;20497;-85
2022/01/02 12:42:14;;;;;;;9.20;4.15;;;12.10;99.90;;;;;;4992994;28;20052;-85
2022/01/02 12:44:40;;;;;;;12.35;4.63;;;12.10;99.90;;;;;;4991612;28;20050;-84
2022/01/02 12:47:09;;;;;;;12.48;4.53;;;12.10;99.90;;;;;;4992741;28;20187;-86
2022/01/02 12:49:37;;;;;;;12.25;4.70;;;12.00;99.90;;;;;;4992227;28;20033;-85
2022/01/02 12:52:03;;;;;;;12.90;4.50;;;12.00;99.90;;;;;;4992705;28;20105;-84
2022/01/02 12:54:32;;;;;;;16.05;4.22;;;12.00;99.90;;;;;;4993077;28;20464;-84
2022/01/02 12:57:01;;;;;;;7.00;4.03;;;11.90;99.90;;;;;;4992751;28;20031;-84
2022/01/02 12:59:35;;;;;;;13.98;4.13;;;11.90;99.90;;;;;;4992263;28;20050;-86
2022/01/02 13:02:34;;;;;;;9.63;3.83;;;11.80;99.90;;;;;;4993073;28;20026;-86